Aérodrome :
LOGIN :

S'inscrire | Disclaimer

   EN    FR    IT 

 










Légende :    VFR   VFR Marginal   IFR   IFR Intensif   IFR Très Intensif
Visi : 
Plafond : 
>= 8 km
>= 3000ft
5 à 8 km
1000 à 3000 ft
1500m à 5 km
500 à 1000 ft
800 à 1500m
200 à 500 ft
< 800m
< 200 ft
Symboles :   Orages  Brouillard  Fortes neiges  Fortes précipitations  Vent > 20 kt
SIGMETs :   Divers  Orages  Givrage  Turbulence  Onde Orograph.  Cendres Volcan.






- Altitude de l'aérodrome : 238 ft
- Code IATA : FAB


EGLF - Farnborough

DERNIER METAR :
  • 100450Z AUTO 16004KT 9999 FEW028/// 01/00 Q1022

METARs EXPIRÉS :
  • 100420Z AUTO 16008KT 9999 NCD 02/00 Q1022
  • 100350Z AUTO 19006KT 9999 NCD 00/M01 Q1023
  • 100320Z AUTO VRB02KT 9999 NCD 00/M01 Q1023
  • 100250Z AUTO VRB02KT 9999 NCD M01/M02 Q1024
  • 100220Z AUTO VRB02KT 9999 NCD M03/M04 Q1024

TAF TAF EGLF
Valide du 09 à 21h jusqu'au 10 à 06h UTC


091956Z 0921/1006 26004KT 9999 FEW030
ATIS : +44 09063 800 400 (*282)



MET'MAP, la Météo Aéronautique d'un coup d'oeil ! - Copyright ORBIFLY Décembre 2007 - Disclaimer

ORBIFLY MET'MAP TEAM :

Programmation & Développement : Alexandra Zaïnal
Sur une idée originale de : Baudouin d'Aumeries
Assistance à la programmation : Marc-Olivier Méhu
Soutien technique & logistique : Manuel Goepfert

Contact : metmap@orbifly.com




SOURCES & CREDITS :

   NOAA